sensor_id;sensor_type;location;lat;lon;timestamp;P1;durP1;ratioP1;P2;durP2;ratioP2
19877;SDS011;10101;52.204;9.910;2022-12-07T00:01:18;20.03;;;11.27;;
19877;SDS011;10101;52.204;9.910;2022-12-07T00:03:47;21.77;;;11.47;;
19877;SDS011;10101;52.204;9.910;2022-12-07T00:06:15;17.87;;;11.33;;
19877;SDS011;10101;52.204;9.910;2022-12-07T00:08:43;20.93;;;12.00;;
19877;SDS011;10101;52.204;9.910;2022-12-07T00:11:11;19.67;;;11.70;;
19877;SDS011;10101;52.204;9.910;2022-12-07T00:13:40;21.20;;;11.87;;
19877;SDS011;10101;52.204;9.910;2022-12-07T00:16:09;21.50;;;11.93;;
19877;SDS011;10101;52.204;9.910;2022-12-07T00:18:37;21.33;;;11.17;;
19877;SDS011;10101;52.204;9.910;2022-12-07T00:21:05;21.63;;;12.67;;
19877;SDS011;10101;52.204;9.910;2022-12-07T00:23:33;25.73;;;12.73;;
19877;SDS011;10101;52.204;9.910;2022-12-07T00:26:04;22.70;;;12.87;;
19877;SDS011;10101;52.204;9.910;2022-12-07T00:28:31;21.40;;;12.30;;
19877;SDS011;10101;52.204;9.910;2022-12-07T00:31:04;22.03;;;12.43;;
19877;SDS011;10101;52.204;9.910;2022-12-07T00:33:32;21.10;;;11.93;;
19877;SDS011;10101;52.204;9.910;2022-12-07T00:36:00;19.53;;;12.07;;
19877;SDS011;10101;52.204;9.910;2022-12-07T00:38:29;19.20;;;11.97;;
19877;SDS011;10101;52.204;9.910;2022-12-07T00:40:58;22.27;;;12.57;;
19877;SDS011;10101;52.204;9.910;2022-12-07T00:43:26;19.30;;;10.87;;
19877;SDS011;10101;52.204;9.910;2022-12-07T00:45:53;21.17;;;11.77;;
19877;SDS011;10101;52.204;9.910;2022-12-07T00:48:22;16.93;;;10.70;;
19877;SDS011;10101;52.204;9.910;2022-12-07T00:50:49;18.33;;;10.47;;
19877;SDS011;10101;52.204;9.910;2022-12-07T00:53:16;18.90;;;10.83;;
19877;SDS011;10101;52.204;9.910;2022-12-07T00:55:43;17.63;;;10.10;;
19877;SDS011;10101;52.204;9.910;2022-12-07T00:58:11;16.53;;;10.17;;
19877;SDS011;10101;52.204;9.910;2022-12-07T01:00:38;16.13;;;10.03;;
19877;SDS011;10101;52.204;9.910;2022-12-07T01:03:07;15.70;;;9.43;;
19877;SDS011;10101;52.204;9.910;2022-12-07T01:05:37;15.07;;;8.77;;
19877;SDS011;10101;52.204;9.910;2022-12-07T01:08:05;16.73;;;9.90;;
19877;SDS011;10101;52.204;9.910;2022-12-07T01:10:32;15.43;;;8.97;;
19877;SDS011;10101;52.204;9.910;2022-12-07T01:12:58;14.80;;;9.50;;
19877;SDS011;10101;52.204;9.910;2022-12-07T01:15:25;14.70;;;8.43;;
19877;SDS011;10101;52.204;9.910;2022-12-07T01:17:53;14.83;;;9.20;;
19877;SDS011;10101;52.204;9.910;2022-12-07T01:20:20;13.33;;;8.60;;
19877;SDS011;10101;52.204;9.910;2022-12-07T01:22:49;14.33;;;8.93;;
19877;SDS011;10101;52.204;9.910;2022-12-07T01:25:15;13.93;;;9.20;;
19877;SDS011;10101;52.204;9.910;2022-12-07T01:27:42;14.47;;;8.13;;
19877;SDS011;10101;52.204;9.910;2022-12-07T01:30:09;15.03;;;8.53;;
19877;SDS011;10101;52.204;9.910;2022-12-07T01:32:37;13.97;;;9.07;;
19877;SDS011;10101;52.204;9.910;2022-12-07T01:35:04;13.40;;;9.17;;
19877;SDS011;10101;52.204;9.910;2022-12-07T01:37:33;13.17;;;8.53;;
19877;SDS011;10101;52.204;9.910;2022-12-07T01:40:02;15.90;;;8.90;;
19877;SDS011;10101;52.204;9.910;2022-12-07T01:42:30;15.23;;;9.33;;
19877;SDS011;10101;52.204;9.910;2022-12-07T01:47:57;14.07;;;8.90;;
19877;SDS011;10101;52.204;9.910;2022-12-07T01:50:25;10.83;;;7.70;;
19877;SDS011;10101;52.204;9.910;2022-12-07T01:52:56;12.80;;;9.07;;
19877;SDS011;10101;52.204;9.910;2022-12-07T01:55:27;12.77;;;9.13;;
19877;SDS011;10101;52.204;9.910;2022-12-07T01:57:53;13.57;;;8.50;;
19877;SDS011;10101;52.204;9.910;2022-12-07T02:00:21;15.67;;;8.40;;
19877;SDS011;10101;52.204;9.910;2022-12-07T02:02:49;14.57;;;9.07;;
19877;SDS011;10101;52.204;9.910;2022-12-07T02:05:19;12.60;;;8.47;;
19877;SDS011;10101;52.204;9.910;2022-12-07T02:07:46;13.37;;;8.97;;
19877;SDS011;10101;52.204;9.910;2022-12-07T02:10:16;12.33;;;8.27;;
19877;SDS011;10101;52.204;9.910;2022-12-07T02:12:46;12.67;;;8.70;;
19877;SDS011;10101;52.204;9.910;2022-12-07T02:15:15;13.00;;;9.13;;
19877;SDS011;10101;52.204;9.910;2022-12-07T02:17:45;13.73;;;9.33;;
19877;SDS011;10101;52.204;9.910;2022-12-07T02:20:21;14.87;;;9.80;;
19877;SDS011;10101;52.204;9.910;2022-12-07T02:29:15;16.00;;;9.37;;
19877;SDS011;10101;52.204;9.910;2022-12-07T02:31:51;17.13;;;10.50;;
19877;SDS011;10101;52.204;9.910;2022-12-07T02:34:28;17.67;;;9.77;;
19877;SDS011;10101;52.204;9.910;2022-12-07T02:37:02;15.97;;;8.83;;
19877;SDS011;10101;52.204;9.910;2022-12-07T02:39:37;15.13;;;9.80;;
19877;SDS011;10101;52.204;9.910;2022-12-07T02:42:10;14.77;;;8.50;;
19877;SDS011;10101;52.204;9.910;2022-12-07T02:44:42;17.93;;;10.10;;
19877;SDS011;10101;52.204;9.910;2022-12-07T02:47:12;15.23;;;9.73;;
19877;SDS011;10101;52.204;9.910;2022-12-07T02:49:41;15.47;;;10.07;;
19877;SDS011;10101;52.204;9.910;2022-12-07T02:52:09;15.90;;;9.77;;
19877;SDS011;10101;52.204;9.910;2022-12-07T02:54:35;17.60;;;10.87;;
19877;SDS011;10101;52.204;9.910;2022-12-07T02:57:04;16.13;;;9.90;;
19877;SDS011;10101;52.204;9.910;2022-12-07T02:59:42;16.27;;;9.57;;
19877;SDS011;10101;52.204;9.910;2022-12-07T03:02:17;17.07;;;10.60;;
19877;SDS011;10101;52.204;9.910;2022-12-07T03:04:52;14.67;;;9.40;;
19877;SDS011;10101;52.204;9.910;2022-12-07T03:07:30;17.53;;;10.53;;
19877;SDS011;10101;52.204;9.910;2022-12-07T03:10:06;15.90;;;10.20;;
19877;SDS011;10101;52.204;9.910;2022-12-07T03:12:37;13.43;;;9.00;;
19877;SDS011;10101;52.204;9.910;2022-12-07T03:15:13;14.70;;;8.67;;
19877;SDS011;10101;52.204;9.910;2022-12-07T03:17:44;16.07;;;9.60;;
19877;SDS011;10101;52.204;9.910;2022-12-07T03:20:13;17.17;;;9.07;;
19877;SDS011;10101;52.204;9.910;2022-12-07T03:22:44;13.03;;;8.70;;
19877;SDS011;10101;52.204;9.910;2022-12-07T03:25:13;14.63;;;8.97;;
19877;SDS011;10101;52.204;9.910;2022-12-07T03:27:43;17.03;;;9.63;;
19877;SDS011;10101;52.204;9.910;2022-12-07T03:30:17;18.33;;;9.47;;
19877;SDS011;10101;52.204;9.910;2022-12-07T03:32:46;15.27;;;9.20;;
19877;SDS011;10101;52.204;9.910;2022-12-07T03:35:16;14.80;;;9.13;;
19877;SDS011;10101;52.204;9.910;2022-12-07T03:37:49;12.33;;;8.67;;
19877;SDS011;10101;52.204;9.910;2022-12-07T03:40:22;18.17;;;8.67;;
19877;SDS011;10101;52.204;9.910;2022-12-07T03:42:55;13.97;;;8.23;;
19877;SDS011;10101;52.204;9.910;2022-12-07T03:45:29;12.93;;;8.60;;
19877;SDS011;10101;52.204;9.910;2022-12-07T03:48:02;13.00;;;8.40;;
19877;SDS011;10101;52.204;9.910;2022-12-07T03:50:35;14.27;;;8.20;;
19877;SDS011;10101;52.204;9.910;2022-12-07T03:53:08;11.87;;;8.33;;
19877;SDS011;10101;52.204;9.910;2022-12-07T03:55:40;13.27;;;8.13;;
19877;SDS011;10101;52.204;9.910;2022-12-07T03:58:10;12.70;;;7.63;;
19877;SDS011;10101;52.204;9.910;2022-12-07T04:00:41;12.63;;;7.77;;
19877;SDS011;10101;52.204;9.910;2022-12-07T04:03:09;16.93;;;7.90;;
19877;SDS011;10101;52.204;9.910;2022-12-07T04:05:36;14.33;;;7.53;;
19877;SDS011;10101;52.204;9.910;2022-12-07T04:08:04;11.00;;;7.37;;
19877;SDS011;10101;52.204;9.910;2022-12-07T04:10:31;9.33;;;6.43;;
19877;SDS011;10101;52.204;9.910;2022-12-07T04:12:57;12.53;;;7.10;;
19877;SDS011;10101;52.204;9.910;2022-12-07T04:15:24;12.50;;;7.77;;
19877;SDS011;10101;52.204;9.910;2022-12-07T04:17:53;13.57;;;7.73;;
19877;SDS011;10101;52.204;9.910;2022-12-07T04:20:21;13.70;;;7.70;;
19877;SDS011;10101;52.204;9.910;2022-12-07T04:22:47;11.80;;;7.33;;
19877;SDS011;10101;52.204;9.910;2022-12-07T04:25:14;12.43;;;8.20;;
19877;SDS011;10101;52.204;9.910;2022-12-07T04:27:41;12.53;;;8.10;;
19877;SDS011;10101;52.204;9.910;2022-12-07T04:30:08;13.23;;;8.13;;
19877;SDS011;10101;52.204;9.910;2022-12-07T04:32:35;10.03;;;6.50;;
19877;SDS011;10101;52.204;9.910;2022-12-07T04:35:04;14.97;;;7.17;;
19877;SDS011;10101;52.204;9.910;2022-12-07T04:37:32;11.07;;;6.37;;
19877;SDS011;10101;52.204;9.910;2022-12-07T04:39:58;10.63;;;6.60;;
19877;SDS011;10101;52.204;9.910;2022-12-07T04:42:25;13.23;;;6.47;;
19877;SDS011;10101;52.204;9.910;2022-12-07T04:44:52;11.57;;;6.20;;
19877;SDS011;10101;52.204;9.910;2022-12-07T04:47:19;9.87;;;6.00;;
19877;SDS011;10101;52.204;9.910;2022-12-07T04:49:46;10.23;;;6.10;;
19877;SDS011;10101;52.204;9.910;2022-12-07T04:52:14;10.60;;;6.30;;
19877;SDS011;10101;52.204;9.910;2022-12-07T04:54:40;11.43;;;6.47;;
19877;SDS011;10101;52.204;9.910;2022-12-07T04:57:07;11.37;;;6.87;;
19877;SDS011;10101;52.204;9.910;2022-12-07T04:59:34;9.83;;;5.70;;
19877;SDS011;10101;52.204;9.910;2022-12-07T05:02:00;12.47;;;6.80;;
19877;SDS011;10101;52.204;9.910;2022-12-07T05:04:27;12.73;;;7.03;;
19877;SDS011;10101;52.204;9.910;2022-12-07T05:06:54;16.73;;;7.73;;
19877;SDS011;10101;52.204;9.910;2022-12-07T05:09:22;12.70;;;7.07;;
19877;SDS011;10101;52.204;9.910;2022-12-07T05:11:49;15.47;;;7.53;;
19877;SDS011;10101;52.204;9.910;2022-12-07T05:14:16;12.77;;;7.93;;
19877;SDS011;10101;52.204;9.910;2022-12-07T05:16:45;14.27;;;7.30;;
19877;SDS011;10101;52.204;9.910;2022-12-07T05:19:13;11.53;;;7.03;;
19877;SDS011;10101;52.204;9.910;2022-12-07T05:21:40;11.13;;;6.47;;
19877;SDS011;10101;52.204;9.910;2022-12-07T05:24:07;11.77;;;6.53;;
19877;SDS011;10101;52.204;9.910;2022-12-07T05:26:37;10.50;;;5.53;;
19877;SDS011;10101;52.204;9.910;2022-12-07T05:29:04;12.30;;;6.23;;
19877;SDS011;10101;52.204;9.910;2022-12-07T05:31:31;12.63;;;6.10;;
19877;SDS011;10101;52.204;9.910;2022-12-07T05:33:59;12.33;;;6.83;;
19877;SDS011;10101;52.204;9.910;2022-12-07T05:36:25;9.37;;;5.17;;
19877;SDS011;10101;52.204;9.910;2022-12-07T05:38:53;9.50;;;5.60;;
19877;SDS011;10101;52.204;9.910;2022-12-07T05:41:20;9.80;;;6.27;;
19877;SDS011;10101;52.204;9.910;2022-12-07T05:44:05;14.80;;;6.07;;
19877;SDS011;10101;52.204;9.910;2022-12-07T05:46:32;10.53;;;6.17;;
19877;SDS011;10101;52.204;9.910;2022-12-07T05:48:59;9.37;;;5.63;;
19877;SDS011;10101;52.204;9.910;2022-12-07T05:51:26;9.43;;;4.93;;
19877;SDS011;10101;52.204;9.910;2022-12-07T05:53:53;11.10;;;5.33;;
19877;SDS011;10101;52.204;9.910;2022-12-07T05:56:20;11.30;;;6.00;;
19877;SDS011;10101;52.204;9.910;2022-12-07T05:58:47;11.65;;;6.90;;
19877;SDS011;10101;52.204;9.910;2022-12-07T06:01:33;9.73;;;5.97;;
19877;SDS011;10101;52.204;9.910;2022-12-07T06:03:59;8.77;;;4.83;;
19877;SDS011;10101;52.204;9.910;2022-12-07T06:06:26;11.70;;;5.67;;
19877;SDS011;10101;52.204;9.910;2022-12-07T06:08:53;10.00;;;5.00;;
19877;SDS011;10101;52.204;9.910;2022-12-07T06:11:20;9.57;;;5.13;;
19877;SDS011;10101;52.204;9.910;2022-12-07T06:14:04;16.47;;;5.30;;
19877;SDS011;10101;52.204;9.910;2022-12-07T06:16:30;9.07;;;4.97;;
19877;SDS011;10101;52.204;9.910;2022-12-07T06:18:58;7.03;;;4.67;;
19877;SDS011;10101;52.204;9.910;2022-12-07T06:21:25;6.67;;;4.33;;
19877;SDS011;10101;52.204;9.910;2022-12-07T06:23:52;8.77;;;4.30;;
19877;SDS011;10101;52.204;9.910;2022-12-07T06:26:19;7.20;;;3.90;;
19877;SDS011;10101;52.204;9.910;2022-12-07T06:28:46;9.80;;;4.30;;
19877;SDS011;10101;52.204;9.910;2022-12-07T06:31:12;7.67;;;4.53;;
19877;SDS011;10101;52.204;9.910;2022-12-07T06:33:41;9.97;;;4.20;;
19877;SDS011;10101;52.204;9.910;2022-12-07T06:36:08;6.03;;;3.90;;
19877;SDS011;10101;52.204;9.910;2022-12-07T06:38:35;7.87;;;4.03;;
19877;SDS011;10101;52.204;9.910;2022-12-07T06:41:02;7.90;;;4.07;;
19877;SDS011;10101;52.204;9.910;2022-12-07T06:43:29;7.07;;;3.60;;
19877;SDS011;10101;52.204;9.910;2022-12-07T06:45:56;6.93;;;3.70;;
19877;SDS011;10101;52.204;9.910;2022-12-07T06:48:23;6.83;;;3.47;;
19877;SDS011;10101;52.204;9.910;2022-12-07T06:50:51;7.47;;;3.03;;
19877;SDS011;10101;52.204;9.910;2022-12-07T06:53:18;8.57;;;3.40;;
19877;SDS011;10101;52.204;9.910;2022-12-07T06:55:45;4.93;;;3.03;;
19877;SDS011;10101;52.204;9.910;2022-12-07T06:58:11;5.97;;;3.33;;
19877;SDS011;10101;52.204;9.910;2022-12-07T07:00:38;7.33;;;3.77;;
19877;SDS011;10101;52.204;9.910;2022-12-07T07:03:05;7.73;;;3.37;;
19877;SDS011;10101;52.204;9.910;2022-12-07T07:05:32;7.47;;;3.40;;
19877;SDS011;10101;52.204;9.910;2022-12-07T07:08:00;9.97;;;3.40;;
19877;SDS011;10101;52.204;9.910;2022-12-07T07:10:27;4.17;;;2.67;;
19877;SDS011;10101;52.204;9.910;2022-12-07T07:12:54;4.35;;;3.00;;
19877;SDS011;10101;52.204;9.910;2022-12-07T07:15:21;4.47;;;3.30;;
19877;SDS011;10101;52.204;9.910;2022-12-07T07:17:47;6.50;;;2.97;;
19877;SDS011;10101;52.204;9.910;2022-12-07T07:20:14;5.97;;;2.60;;
19877;SDS011;10101;52.204;9.910;2022-12-07T07:22:41;8.17;;;3.10;;
19877;SDS011;10101;52.204;9.910;2022-12-07T07:25:09;4.83;;;3.13;;
19877;SDS011;10101;52.204;9.910;2022-12-07T07:27:36;5.40;;;3.20;;
19877;SDS011;10101;52.204;9.910;2022-12-07T07:30:03;4.90;;;3.13;;
19877;SDS011;10101;52.204;9.910;2022-12-07T07:32:31;6.00;;;3.53;;
19877;SDS011;10101;52.204;9.910;2022-12-07T07:34:57;6.00;;;3.17;;
19877;SDS011;10101;52.204;9.910;2022-12-07T07:37:24;4.20;;;2.60;;
19877;SDS011;10101;52.204;9.910;2022-12-07T07:39:52;7.47;;;2.60;;
19877;SDS011;10101;52.204;9.910;2022-12-07T07:42:20;6.47;;;2.13;;
19877;SDS011;10101;52.204;9.910;2022-12-07T07:44:46;5.03;;;2.30;;
19877;SDS011;10101;52.204;9.910;2022-12-07T07:47:13;4.57;;;1.80;;
19877;SDS011;10101;52.204;9.910;2022-12-07T07:49:40;2.67;;;1.80;;
19877;SDS011;10101;52.204;9.910;2022-12-07T07:52:06;4.63;;;1.90;;
19877;SDS011;10101;52.204;9.910;2022-12-07T07:54:33;5.10;;;2.00;;
19877;SDS011;10101;52.204;9.910;2022-12-07T07:57:00;4.63;;;2.23;;
19877;SDS011;10101;52.204;9.910;2022-12-07T07:59:28;6.30;;;2.00;;
19877;SDS011;10101;52.204;9.910;2022-12-07T08:01:55;4.13;;;2.07;;
19877;SDS011;10101;52.204;9.910;2022-12-07T08:04:21;3.77;;;2.13;;
19877;SDS011;10101;52.204;9.910;2022-12-07T08:06:48;4.90;;;2.10;;
19877;SDS011;10101;52.204;9.910;2022-12-07T08:09:15;3.13;;;1.70;;
19877;SDS011;10101;52.204;9.910;2022-12-07T08:11:42;3.63;;;2.23;;
19877;SDS011;10101;52.204;9.910;2022-12-07T08:14:09;4.43;;;1.60;;
19877;SDS011;10101;52.204;9.910;2022-12-07T08:16:38;7.63;;;1.80;;
19877;SDS011;10101;52.204;9.910;2022-12-07T08:19:05;3.33;;;1.50;;
19877;SDS011;10101;52.204;9.910;2022-12-07T08:21:32;3.27;;;1.10;;
19877;SDS011;10101;52.204;9.910;2022-12-07T08:23:59;3.63;;;1.40;;
19877;SDS011;10101;52.204;9.910;2022-12-07T08:26:26;3.73;;;1.20;;
19877;SDS011;10101;52.204;9.910;2022-12-07T08:28:52;3.00;;;1.40;;
19877;SDS011;10101;52.204;9.910;2022-12-07T08:31:19;3.63;;;1.40;;
19877;SDS011;10101;52.204;9.910;2022-12-07T08:33:48;6.90;;;1.70;;
19877;SDS011;10101;52.204;9.910;2022-12-07T08:36:15;6.13;;;1.27;;
19877;SDS011;10101;52.204;9.910;2022-12-07T08:38:42;2.40;;;1.20;;
19877;SDS011;10101;52.204;9.910;2022-12-07T08:41:09;3.57;;;1.07;;
19877;SDS011;10101;52.204;9.910;2022-12-07T08:43:36;3.07;;;1.10;;
19877;SDS011;10101;52.204;9.910;2022-12-07T08:46:05;4.13;;;1.27;;
19877;SDS011;10101;52.204;9.910;2022-12-07T08:48:35;5.03;;;1.40;;
19877;SDS011;10101;52.204;9.910;2022-12-07T08:51:06;2.97;;;1.20;;
19877;SDS011;10101;52.204;9.910;2022-12-07T08:53:33;3.17;;;1.73;;
19877;SDS011;10101;52.204;9.910;2022-12-07T08:56:01;2.93;;;0.90;;
19877;SDS011;10101;52.204;9.910;2022-12-07T08:58:28;4.10;;;1.37;;
19877;SDS011;10101;52.204;9.910;2022-12-07T09:00:54;3.53;;;1.20;;
19877;SDS011;10101;52.204;9.910;2022-12-07T09:03:21;3.23;;;1.20;;
19877;SDS011;10101;52.204;9.910;2022-12-07T09:05:48;2.47;;;1.10;;
19877;SDS011;10101;52.204;9.910;2022-12-07T09:08:16;3.93;;;1.27;;
19877;SDS011;10101;52.204;9.910;2022-12-07T09:10:43;4.83;;;1.10;;
19877;SDS011;10101;52.204;9.910;2022-12-07T09:13:10;2.20;;;1.20;;
19877;SDS011;10101;52.204;9.910;2022-12-07T09:15:37;3.97;;;1.30;;
19877;SDS011;10101;52.204;9.910;2022-12-07T09:18:04;2.10;;;1.00;;
19877;SDS011;10101;52.204;9.910;2022-12-07T09:20:31;7.43;;;1.50;;
19877;SDS011;10101;52.204;9.910;2022-12-07T09:22:58;1.77;;;1.20;;
19877;SDS011;10101;52.204;9.910;2022-12-07T09:25:26;3.97;;;1.17;;
19877;SDS011;10101;52.204;9.910;2022-12-07T09:27:56;3.33;;;1.40;;
19877;SDS011;10101;52.204;9.910;2022-12-07T09:30:23;3.30;;;1.30;;
19877;SDS011;10101;52.204;9.910;2022-12-07T09:32:50;5.47;;;1.23;;
19877;SDS011;10101;52.204;9.910;2022-12-07T09:35:18;2.10;;;0.90;;
19877;SDS011;10101;52.204;9.910;2022-12-07T09:37:45;3.47;;;1.00;;
19877;SDS011;10101;52.204;9.910;2022-12-07T09:40:12;1.33;;;0.67;;
19877;SDS011;10101;52.204;9.910;2022-12-07T09:42:43;1.90;;;0.80;;
19877;SDS011;10101;52.204;9.910;2022-12-07T09:45:14;3.63;;;1.03;;
19877;SDS011;10101;52.204;9.910;2022-12-07T09:47:42;4.13;;;0.90;;
19877;SDS011;10101;52.204;9.910;2022-12-07T09:50:12;2.30;;;1.00;;
19877;SDS011;10101;52.204;9.910;2022-12-07T09:52:41;4.37;;;1.00;;
19877;SDS011;10101;52.204;9.910;2022-12-07T09:55:11;4.23;;;1.40;;
19877;SDS011;10101;52.204;9.910;2022-12-07T09:57:39;1.83;;;0.87;;
19877;SDS011;10101;52.204;9.910;2022-12-07T10:00:10;3.70;;;0.90;;
19877;SDS011;10101;52.204;9.910;2022-12-07T10:02:40;2.37;;;1.00;;
19877;SDS011;10101;52.204;9.910;2022-12-07T10:05:11;4.40;;;1.20;;
19877;SDS011;10101;52.204;9.910;2022-12-07T10:07:40;1.97;;;0.80;;
19877;SDS011;10101;52.204;9.910;2022-12-07T10:10:12;2.57;;;0.90;;
19877;SDS011;10101;52.204;9.910;2022-12-07T10:12:54;2.73;;;1.00;;
19877;SDS011;10101;52.204;9.910;2022-12-07T10:15:24;3.40;;;1.00;;
19877;SDS011;10101;52.204;9.910;2022-12-07T10:18:16;2.70;;;1.27;;
19877;SDS011;10101;52.204;9.910;2022-12-07T10:21:01;1.03;;;0.70;;
19877;SDS011;10101;52.204;9.910;2022-12-07T10:23:32;1.27;;;0.60;;
19877;SDS011;10101;52.204;9.910;2022-12-07T10:26:00;1.43;;;0.80;;
19877;SDS011;10101;52.204;9.910;2022-12-07T10:28:46;2.30;;;0.83;;
19877;SDS011;10101;52.204;9.910;2022-12-07T10:31:16;2.60;;;1.17;;
19877;SDS011;10101;52.204;9.910;2022-12-07T10:33:49;3.93;;;1.20;;
19877;SDS011;10101;52.204;9.910;2022-12-07T10:36:21;1.33;;;0.90;;
19877;SDS011;10101;52.204;9.910;2022-12-07T10:38:52;2.10;;;0.90;;
19877;SDS011;10101;52.204;9.910;2022-12-07T10:41:24;4.40;;;0.90;;
19877;SDS011;10101;52.204;9.910;2022-12-07T10:43:52;2.13;;;1.30;;
19877;SDS011;10101;52.204;9.910;2022-12-07T10:46:25;2.67;;;0.90;;
19877;SDS011;10101;52.204;9.910;2022-12-07T10:49:21;2.73;;;1.00;;
19877;SDS011;10101;52.204;9.910;2022-12-07T10:52:08;3.57;;;0.90;;
19877;SDS011;10101;52.204;9.910;2022-12-07T10:54:42;1.40;;;0.90;;
19877;SDS011;10101;52.204;9.910;2022-12-07T10:57:18;2.30;;;1.10;;
19877;SDS011;10101;52.204;9.910;2022-12-07T11:00:09;1.60;;;1.03;;
19877;SDS011;10101;52.204;9.910;2022-12-07T11:02:48;3.07;;;0.93;;
19877;SDS011;10101;52.204;9.910;2022-12-07T11:05:31;1.70;;;1.00;;
19877;SDS011;10101;52.204;9.910;2022-12-07T11:08:13;3.43;;;0.97;;
19877;SDS011;10101;52.204;9.910;2022-12-07T11:10:48;3.27;;;1.50;;
19877;SDS011;10101;52.204;9.910;2022-12-07T11:13:23;3.77;;;1.40;;
19877;SDS011;10101;52.204;9.910;2022-12-07T11:16:02;3.37;;;1.10;;
19877;SDS011;10101;52.204;9.910;2022-12-07T11:18:39;3.53;;;1.17;;
19877;SDS011;10101;52.204;9.910;2022-12-07T11:21:11;9.43;;;1.30;;
19877;SDS011;10101;52.204;9.910;2022-12-07T11:23:49;2.10;;;1.20;;
19877;SDS011;10101;52.204;9.910;2022-12-07T11:26:25;3.57;;;1.10;;
19877;SDS011;10101;52.204;9.910;2022-12-07T11:29:09;7.90;;;1.83;;
19877;SDS011;10101;52.204;9.910;2022-12-07T11:31:50;5.53;;;2.10;;
19877;SDS011;10101;52.204;9.910;2022-12-07T11:34:30;2.17;;;1.50;;
19877;SDS011;10101;52.204;9.910;2022-12-07T11:37:05;2.53;;;1.53;;
19877;SDS011;10101;52.204;9.910;2022-12-07T11:39:39;1.37;;;1.00;;
19877;SDS011;10101;52.204;9.910;2022-12-07T11:42:12;4.43;;;1.50;;
19877;SDS011;10101;52.204;9.910;2022-12-07T11:44:44;6.97;;;1.73;;
19877;SDS011;10101;52.204;9.910;2022-12-07T11:47:17;6.93;;;2.50;;
19877;SDS011;10101;52.204;9.910;2022-12-07T11:49:53;6.40;;;1.60;;
19877;SDS011;10101;52.204;9.910;2022-12-07T11:52:25;4.30;;;1.50;;
19877;SDS011;10101;52.204;9.910;2022-12-07T11:54:56;3.60;;;1.90;;
19877;SDS011;10101;52.204;9.910;2022-12-07T11:57:28;7.90;;;2.10;;
19877;SDS011;10101;52.204;9.910;2022-12-07T12:00:04;2.63;;;1.60;;
19877;SDS011;10101;52.204;9.910;2022-12-07T12:02:34;4.30;;;1.87;;
19877;SDS011;10101;52.204;9.910;2022-12-07T12:05:14;5.70;;;1.90;;
19877;SDS011;10101;52.204;9.910;2022-12-07T12:07:43;4.60;;;1.60;;
19877;SDS011;10101;52.204;9.910;2022-12-07T12:10:16;7.87;;;2.20;;
19877;SDS011;10101;52.204;9.910;2022-12-07T12:12:54;4.27;;;1.87;;
19877;SDS011;10101;52.204;9.910;2022-12-07T12:15:37;6.90;;;3.03;;
19877;SDS011;10101;52.204;9.910;2022-12-07T12:18:25;5.23;;;1.73;;
19877;SDS011;10101;52.204;9.910;2022-12-07T12:21:06;3.97;;;1.70;;
19877;SDS011;10101;52.204;9.910;2022-12-07T12:23:36;4.37;;;1.20;;
19877;SDS011;10101;52.204;9.910;2022-12-07T12:26:07;3.10;;;1.10;;
19877;SDS011;10101;52.204;9.910;2022-12-07T12:28:42;4.97;;;1.47;;
19877;SDS011;10101;52.204;9.910;2022-12-07T12:31:28;2.07;;;0.90;;
19877;SDS011;10101;52.204;9.910;2022-12-07T12:34:01;2.03;;;0.83;;
19877;SDS011;10101;52.204;9.910;2022-12-07T12:36:44;3.37;;;1.10;;
19877;SDS011;10101;52.204;9.910;2022-12-07T12:39:13;3.57;;;0.97;;
19877;SDS011;10101;52.204;9.910;2022-12-07T12:41:51;3.10;;;1.10;;
19877;SDS011;10101;52.204;9.910;2022-12-07T12:47:53;3.23;;;0.90;;
19877;SDS011;10101;52.204;9.910;2022-12-07T12:50:23;5.67;;;1.20;;
19877;SDS011;10101;52.204;9.910;2022-12-07T12:52:54;5.17;;;1.17;;
19877;SDS011;10101;52.204;9.910;2022-12-07T12:58:37;3.63;;;1.10;;
19877;SDS011;10101;52.204;9.910;2022-12-07T13:10:21;4.90;;;1.50;;
19877;SDS011;10101;52.204;9.910;2022-12-07T13:13:30;10.43;;;1.63;;
19877;SDS011;10101;52.204;9.910;2022-12-07T13:18:59;3.73;;;1.50;;
19877;SDS011;10101;52.204;9.910;2022-12-07T13:21:42;8.53;;;1.70;;
19877;SDS011;10101;52.204;9.910;2022-12-07T13:24:10;6.07;;;1.50;;
19877;SDS011;10101;52.204;9.910;2022-12-07T13:26:41;5.20;;;1.47;;
19877;SDS011;10101;52.204;9.910;2022-12-07T13:29:11;4.77;;;1.37;;
19877;SDS011;10101;52.204;9.910;2022-12-07T13:31:39;5.70;;;1.40;;
19877;SDS011;10101;52.204;9.910;2022-12-07T13:36:57;4.93;;;1.40;;
19877;SDS011;10101;52.204;9.910;2022-12-07T13:39:25;5.23;;;1.10;;
19877;SDS011;10101;52.204;9.910;2022-12-07T13:41:55;4.40;;;1.13;;
19877;SDS011;10101;52.204;9.910;2022-12-07T13:44:23;3.73;;;1.10;;
19877;SDS011;10101;52.204;9.910;2022-12-07T13:46:53;4.83;;;1.33;;
19877;SDS011;10101;52.204;9.910;2022-12-07T13:49:28;4.53;;;1.20;;
19877;SDS011;10101;52.204;9.910;2022-12-07T13:52:06;7.00;;;1.20;;
19877;SDS011;10101;52.204;9.910;2022-12-07T13:54:43;4.23;;;1.20;;
19877;SDS011;10101;52.204;9.910;2022-12-07T13:57:12;4.07;;;1.43;;
19877;SDS011;10101;52.204;9.910;2022-12-07T13:59:39;2.43;;;1.23;;
19877;SDS011;10101;52.204;9.910;2022-12-07T14:02:16;4.73;;;1.10;;
19877;SDS011;10101;52.204;9.910;2022-12-07T14:04:46;2.07;;;1.10;;
19877;SDS011;10101;52.204;9.910;2022-12-07T14:07:22;4.83;;;1.67;;
19877;SDS011;10101;52.204;9.910;2022-12-07T14:09:54;3.33;;;1.00;;
19877;SDS011;10101;52.204;9.910;2022-12-07T14:12:23;3.97;;;1.40;;
19877;SDS011;10101;52.204;9.910;2022-12-07T14:14:51;7.07;;;1.70;;
19877;SDS011;10101;52.204;9.910;2022-12-07T14:17:19;8.20;;;2.37;;
19877;SDS011;10101;52.204;9.910;2022-12-07T14:19:49;3.77;;;1.27;;
19877;SDS011;10101;52.204;9.910;2022-12-07T14:22:21;4.80;;;1.70;;
19877;SDS011;10101;52.204;9.910;2022-12-07T14:25:00;7.50;;;1.77;;
19877;SDS011;10101;52.204;9.910;2022-12-07T14:27:49;3.20;;;1.00;;
19877;SDS011;10101;52.204;9.910;2022-12-07T14:30:20;2.43;;;1.13;;
19877;SDS011;10101;52.204;9.910;2022-12-07T14:32:48;6.80;;;1.50;;
19877;SDS011;10101;52.204;9.910;2022-12-07T14:35:18;5.23;;;2.00;;
19877;SDS011;10101;52.204;9.910;2022-12-07T14:37:46;5.00;;;1.73;;
19877;SDS011;10101;52.204;9.910;2022-12-07T14:40:14;10.03;;;1.93;;
19877;SDS011;10101;52.204;9.910;2022-12-07T14:42:42;2.30;;;1.40;;
19877;SDS011;10101;52.204;9.910;2022-12-07T14:45:14;9.83;;;2.10;;
19877;SDS011;10101;52.204;9.910;2022-12-07T14:47:42;4.57;;;1.30;;
19877;SDS011;10101;52.204;9.910;2022-12-07T14:50:11;4.67;;;1.70;;
19877;SDS011;10101;52.204;9.910;2022-12-07T14:52:39;4.10;;;1.70;;
19877;SDS011;10101;52.204;9.910;2022-12-07T14:55:12;6.87;;;1.70;;
19877;SDS011;10101;52.204;9.910;2022-12-07T14:57:40;7.60;;;2.07;;
19877;SDS011;10101;52.204;9.910;2022-12-07T15:00:08;5.97;;;1.50;;
19877;SDS011;10101;52.204;9.910;2022-12-07T15:02:40;3.63;;;1.57;;
19877;SDS011;10101;52.204;9.910;2022-12-07T15:05:07;5.87;;;1.90;;
19877;SDS011;10101;52.204;9.910;2022-12-07T15:07:34;5.43;;;1.77;;
19877;SDS011;10101;52.204;9.910;2022-12-07T15:10:01;6.50;;;1.80;;
19877;SDS011;10101;52.204;9.910;2022-12-07T15:12:28;6.77;;;1.60;;
19877;SDS011;10101;52.204;9.910;2022-12-07T15:14:55;4.10;;;1.47;;
19877;SDS011;10101;52.204;9.910;2022-12-07T15:17:21;5.03;;;1.90;;
19877;SDS011;10101;52.204;9.910;2022-12-07T15:19:49;5.93;;;1.63;;
19877;SDS011;10101;52.204;9.910;2022-12-07T15:22:16;3.80;;;1.50;;
19877;SDS011;10101;52.204;9.910;2022-12-07T15:24:43;3.90;;;2.17;;
19877;SDS011;10101;52.204;9.910;2022-12-07T15:27:10;2.07;;;1.30;;
19877;SDS011;10101;52.204;9.910;2022-12-07T15:29:36;5.90;;;1.50;;